Current Weather

Ouagadougou

Ouagadougou, Burkina Faso (DFFD)

Report from: Wednesday, April 24, 2024 5:00 PM GMT
Current time: Wednesday, April 24, 2024 6:16 PM GMT

Nearby weather – Weather history – Daily summaries
Weather forecast

Temperature42.0°C (107.6°F)
Heat index43.3°C (109.9°F)
Dew point16.0°C (60.8°F)
Winds 4 kts (2.1 m/s, 4.6 mph) Vrb
Winds variableWinds variable from Northwest (310°) to East (80°)
Visibility6.2 mi. (10 km)
Clouds Few clouds 2,600 ft. (792 m)
Few clouds with cumulonimbus 4,000 ft. (1,219 m)
Altimeter29.65 in.Hg (1004 mB)
Relative humidity22 %
Density altitude3,580 ft. (1,091 m)
Flight conditions Visual Meteorological Conditions
Raw dataDFFD 241700Z 02004KT 310V080 9999 FEW026 FEW040CB 42/16 Q1004 TEMPO TS
An error has occurred. This application may no longer respond until reloaded. Reload 🗙